sensor_id;sensor_type;location;lat;lon;timestamp;pressure;altitude;pressure_sealevel;temperature;humidity
27210;BME280;14721;42.668;23.386;2022-12-19T00:01:10;97092.75;;;1.68;78.66
27210;BME280;14721;42.668;23.386;2022-12-19T00:03:43;97100.66;;;1.68;78.64
27210;BME280;14721;42.668;23.386;2022-12-19T00:06:10;97097.13;;;1.71;78.41
27210;BME280;14721;42.668;23.386;2022-12-19T00:08:36;97101.59;;;1.64;78.72
27210;BME280;14721;42.668;23.386;2022-12-19T00:11:05;97108.72;;;1.55;78.88
27210;BME280;14721;42.668;23.386;2022-12-19T00:13:34;97100.78;;;1.56;79.28
27210;BME280;14721;42.668;23.386;2022-12-19T00:16:01;97099.88;;;1.62;79.22
27210;BME280;14721;42.668;23.386;2022-12-19T00:18:27;97091.97;;;1.62;79.19
27210;BME280;14721;42.668;23.386;2022-12-19T00:20:58;97104.13;;;1.72;79.33
27210;BME280;14721;42.668;23.386;2022-12-19T00:23:27;97113.78;;;1.73;78.81
27210;BME280;14721;42.668;23.386;2022-12-19T00:26:05;97103.31;;;1.67;78.85
27210;BME280;14721;42.668;23.386;2022-12-19T00:28:31;97099.06;;;1.54;78.94
27210;BME280;14721;42.668;23.386;2022-12-19T00:30:59;97105.00;;;1.74;79.07
27210;BME280;14721;42.668;23.386;2022-12-19T00:33:26;97106.69;;;1.79;78.88
27210;BME280;14721;42.668;23.386;2022-12-19T00:35:58;97107.59;;;1.77;78.67
27210;BME280;14721;42.668;23.386;2022-12-19T00:38:25;97112.81;;;1.81;78.90
27210;BME280;14721;42.668;23.386;2022-12-19T00:40:51;97122.44;;;1.84;78.66
27210;BME280;14721;42.668;23.386;2022-12-19T00:43:17;97120.66;;;1.86;78.84
27210;BME280;14721;42.668;23.386;2022-12-19T00:45:42;97122.41;;;1.87;79.10
27210;BME280;14721;42.668;23.386;2022-12-19T00:48:08;97125.03;;;1.87;79.03
27210;BME280;14721;42.668;23.386;2022-12-19T00:50:34;97115.53;;;1.75;78.92
27210;BME280;14721;42.668;23.386;2022-12-19T00:53:01;97119.03;;;1.74;79.46
27210;BME280;14721;42.668;23.386;2022-12-19T00:55:27;97123.38;;;1.80;79.34
27210;BME280;14721;42.668;23.386;2022-12-19T00:57:54;97115.53;;;1.74;79.67
27210;BME280;14721;42.668;23.386;2022-12-19T01:00:20;97120.81;;;1.72;79.77
27210;BME280;14721;42.668;23.386;2022-12-19T01:02:47;97124.22;;;1.80;79.76
27210;BME280;14721;42.668;23.386;2022-12-19T01:05:13;97126.00;;;1.80;79.49
27210;BME280;14721;42.668;23.386;2022-12-19T01:07:40;97121.56;;;1.82;79.69
27210;BME280;14721;42.668;23.386;2022-12-19T01:10:06;97122.53;;;1.76;79.59
27210;BME280;14721;42.668;23.386;2022-12-19T01:12:31;97128.66;;;1.78;79.83
27210;BME280;14721;42.668;23.386;2022-12-19T01:15:14;97140.91;;;1.82;79.74
27210;BME280;14721;42.668;23.386;2022-12-19T01:17:40;97131.28;;;1.78;79.79
27210;BME280;14721;42.668;23.386;2022-12-19T01:20:06;97134.66;;;1.89;79.85
27210;BME280;14721;42.668;23.386;2022-12-19T01:22:31;97139.97;;;1.85;79.77
27210;BME280;14721;42.668;23.386;2022-12-19T01:24:57;97123.44;;;1.74;80.03
27210;BME280;14721;42.668;23.386;2022-12-19T01:27:22;97133.13;;;1.72;80.38
27210;BME280;14721;42.668;23.386;2022-12-19T01:29:48;97130.47;;;1.73;80.57
27210;BME280;14721;42.668;23.386;2022-12-19T01:32:14;97135.88;;;1.60;80.85
27210;BME280;14721;42.668;23.386;2022-12-19T01:34:39;97137.63;;;1.61;81.22
27210;BME280;14721;42.668;23.386;2022-12-19T01:37:05;97133.97;;;1.74;81.14
27210;BME280;14721;42.668;23.386;2022-12-19T01:39:30;97136.59;;;1.77;80.86
27210;BME280;14721;42.668;23.386;2022-12-19T01:41:56;97120.84;;;1.71;81.15
27210;BME280;14721;42.668;23.386;2022-12-19T01:44:24;97123.34;;;1.81;80.88
27210;BME280;14721;42.668;23.386;2022-12-19T01:46:53;97113.72;;;1.77;80.67
27210;BME280;14721;42.668;23.386;2022-12-19T01:49:32;97075.47;;;1.45;80.41
27210;BME280;14721;42.668;23.386;2022-12-19T01:52:02;97112.16;;;1.63;81.06
27210;BME280;14721;42.668;23.386;2022-12-19T01:54:36;97122.56;;;1.72;80.86
27210;BME280;14721;42.668;23.386;2022-12-19T01:57:05;97120.09;;;1.60;81.37
27210;BME280;14721;42.668;23.386;2022-12-19T01:59:54;97125.31;;;1.64;81.36
27210;BME280;14721;42.668;23.386;2022-12-19T02:02:30;97124.47;;;1.58;81.56
27210;BME280;14721;42.668;23.386;2022-12-19T02:04:57;97114.91;;;1.51;81.61
27210;BME280;14721;42.668;23.386;2022-12-19T02:07:26;97121.84;;;1.59;81.50
27210;BME280;14721;42.668;23.386;2022-12-19T02:09:55;97125.31;;;1.63;81.60
27210;BME280;14721;42.668;23.386;2022-12-19T02:12:24;97123.56;;;1.63;81.39
27210;BME280;14721;42.668;23.386;2022-12-19T02:14:53;97128.03;;;1.55;81.95
27210;BME280;14721;42.668;23.386;2022-12-19T02:33:53;97134.97;;;1.64;81.85
27210;BME280;14721;42.668;23.386;2022-12-19T02:36:25;97134.09;;;1.65;81.65
27210;BME280;14721;42.668;23.386;2022-12-19T02:39:00;97131.53;;;1.57;81.90
27210;BME280;14721;42.668;23.386;2022-12-19T02:41:38;97144.78;;;1.51;81.74
27210;BME280;14721;42.668;23.386;2022-12-19T02:44:22;97137.69;;;1.55;81.72
27210;BME280;14721;42.668;23.386;2022-12-19T02:46:51;97138.63;;;1.49;81.74
27210;BME280;14721;42.668;23.386;2022-12-19T02:49:17;97131.59;;;1.53;82.31
27210;BME280;14721;42.668;23.386;2022-12-19T02:51:43;97130.75;;;1.49;82.17
27210;BME280;14721;42.668;23.386;2022-12-19T02:54:09;97125.44;;;1.51;82.43
27210;BME280;14721;42.668;23.386;2022-12-19T02:56:56;97129.03;;;1.45;82.03
27210;BME280;14721;42.668;23.386;2022-12-19T03:05:41;97119.31;;;1.49;82.11
27210;BME280;14721;42.668;23.386;2022-12-19T03:08:25;97086.25;;;1.22;81.95
27210;BME280;14721;42.668;23.386;2022-12-19T03:11:11;97113.16;;;1.53;82.19
27210;BME280;14721;42.668;23.386;2022-12-19T03:13:46;97112.19;;;1.60;82.27
27210;BME280;14721;42.668;23.386;2022-12-19T03:16:14;97113.00;;;1.65;81.74
27210;BME280;14721;42.668;23.386;2022-12-19T03:18:39;97089.34;;;1.62;81.27
27210;BME280;14721;42.668;23.386;2022-12-19T03:21:34;97126.09;;;1.72;80.91
27210;BME280;14721;42.668;23.386;2022-12-19T03:23:58;97114.66;;;1.72;81.13
27210;BME280;14721;42.668;23.386;2022-12-19T03:26:27;97123.38;;;1.78;81.40
27210;BME280;14721;42.668;23.386;2022-12-19T03:29:17;97120.88;;;1.69;81.24
27210;BME280;14721;42.668;23.386;2022-12-19T03:31:46;97113.78;;;1.71;80.59
27210;BME280;14721;42.668;23.386;2022-12-19T03:34:17;97126.94;;;1.73;80.90
27210;BME280;14721;42.668;23.386;2022-12-19T03:36:52;97126.97;;;1.70;81.21
27210;BME280;14721;42.668;23.386;2022-12-19T03:39:20;97127.09;;;1.61;81.35
27210;BME280;14721;42.668;23.386;2022-12-19T03:41:48;97141.19;;;1.58;81.35
27210;BME280;14721;42.668;23.386;2022-12-19T03:44:36;97128.06;;;1.52;81.66
27210;BME280;14721;42.668;23.386;2022-12-19T03:49:44;97121.91;;;1.52;81.50
27210;BME280;14721;42.668;23.386;2022-12-19T03:57:40;97122.94;;;1.39;81.22
27210;BME280;14721;42.668;23.386;2022-12-19T04:00:10;97151.72;;;1.57;81.39
27210;BME280;14721;42.668;23.386;2022-12-19T04:02:39;97148.25;;;1.52;81.13
27210;BME280;14721;42.668;23.386;2022-12-19T04:05:11;97149.19;;;1.49;81.45
27210;BME280;14721;42.668;23.386;2022-12-19T04:07:40;97160.66;;;1.44;81.81
27210;BME280;14721;42.668;23.386;2022-12-19T04:10:10;97164.13;;;1.46;81.67
27210;BME280;14721;42.668;23.386;2022-12-19T04:12:42;97157.22;;;1.36;81.59
27210;BME280;14721;42.668;23.386;2022-12-19T04:15:11;97172.09;;;1.38;81.26
27210;BME280;14721;42.668;23.386;2022-12-19T04:17:51;97171.31;;;1.32;81.24
27210;BME280;14721;42.668;23.386;2022-12-19T04:20:25;97162.56;;;1.27;80.79
27210;BME280;14721;42.668;23.386;2022-12-19T04:25:34;97181.06;;;1.19;81.92
27210;BME280;14721;42.668;23.386;2022-12-19T04:28:29;97188.03;;;1.23;81.88
27210;BME280;14721;42.668;23.386;2022-12-19T04:30:56;97182.81;;;1.19;81.87
27210;BME280;14721;42.668;23.386;2022-12-19T04:33:22;97174.97;;;1.13;81.74
27210;BME280;14721;42.668;23.386;2022-12-19T04:35:48;97171.50;;;1.12;81.84
27210;BME280;14721;42.668;23.386;2022-12-19T04:38:15;97178.50;;;1.10;81.95
27210;BME280;14721;42.668;23.386;2022-12-19T04:40:41;97167.09;;;1.11;81.78
27210;BME280;14721;42.668;23.386;2022-12-19T04:43:07;97174.91;;;1.19;81.71
27210;BME280;14721;42.668;23.386;2022-12-19T04:45:33;97173.22;;;1.15;81.35
27210;BME280;14721;42.668;23.386;2022-12-19T04:47:59;97180.25;;;1.11;81.61
27210;BME280;14721;42.668;23.386;2022-12-19T04:50:24;97182.06;;;1.08;82.10
27210;BME280;14721;42.668;23.386;2022-12-19T04:52:50;97188.19;;;1.07;82.05
27210;BME280;14721;42.668;23.386;2022-12-19T04:55:16;97176.03;;;0.94;82.12
27210;BME280;14721;42.668;23.386;2022-12-19T04:57:41;97187.38;;;1.00;82.27
27210;BME280;14721;42.668;23.386;2022-12-19T05:00:08;97187.44;;;0.94;82.24
27210;BME280;14721;42.668;23.386;2022-12-19T05:02:36;97184.91;;;0.79;83.07
27210;BME280;14721;42.668;23.386;2022-12-19T05:05:02;97196.25;;;0.86;83.38
27210;BME280;14721;42.668;23.386;2022-12-19T05:07:28;97198.84;;;0.92;82.80
27210;BME280;14721;42.668;23.386;2022-12-19T05:09:59;97191.88;;;0.83;82.66
27210;BME280;14721;42.668;23.386;2022-12-19T05:12:27;97199.72;;;0.92;82.75
27210;BME280;14721;42.668;23.386;2022-12-19T05:14:53;97186.53;;;0.95;82.71
27210;BME280;14721;42.668;23.386;2022-12-19T05:17:19;97188.31;;;0.89;82.85
27210;BME280;14721;42.668;23.386;2022-12-19T05:19:45;97196.16;;;0.98;82.75
27210;BME280;14721;42.668;23.386;2022-12-19T05:22:11;97188.16;;;1.10;82.44
27210;BME280;14721;42.668;23.386;2022-12-19T05:24:37;97195.16;;;1.15;82.06
27210;BME280;14721;42.668;23.386;2022-12-19T05:27:03;97196.91;;;1.13;82.47
27210;BME280;14721;42.668;23.386;2022-12-19T05:29:30;97197.78;;;1.15;82.23
27210;BME280;14721;42.668;23.386;2022-12-19T05:31:56;97196.06;;;1.10;82.37
27210;BME280;14721;42.668;23.386;2022-12-19T05:34:22;97205.72;;;1.11;82.62
27210;BME280;14721;42.668;23.386;2022-12-19T05:36:48;97204.81;;;1.12;82.48
27210;BME280;14721;42.668;23.386;2022-12-19T05:39:14;97206.53;;;1.17;82.89
27210;BME280;14721;42.668;23.386;2022-12-19T05:41:40;97206.47;;;1.25;82.89
27210;BME280;14721;42.668;23.386;2022-12-19T05:44:06;97209.13;;;1.22;81.74
27210;BME280;14721;42.668;23.386;2022-12-19T05:46:31;97198.56;;;1.23;81.91
27210;BME280;14721;42.668;23.386;2022-12-19T05:48:57;97206.50;;;1.19;81.92
27210;BME280;14721;42.668;23.386;2022-12-19T05:51:24;97205.69;;;1.15;81.85
27210;BME280;14721;42.668;23.386;2022-12-19T05:53:50;97207.41;;;1.19;81.96
27210;BME280;14721;42.668;23.386;2022-12-19T05:56:20;97211.75;;;1.23;81.71
27210;BME280;14721;42.668;23.386;2022-12-19T05:58:48;97215.22;;;1.27;81.61
27210;BME280;14721;42.668;23.386;2022-12-19T06:01:17;97219.56;;;1.32;81.36
27210;BME280;14721;42.668;23.386;2022-12-19T06:03:43;97213.41;;;1.35;81.26
27210;BME280;14721;42.668;23.386;2022-12-19T06:06:12;97218.63;;;1.41;80.81
27210;BME280;14721;42.668;23.386;2022-12-19T06:08:39;97214.19;;;1.43;80.34
27210;BME280;14721;42.668;23.386;2022-12-19T06:11:07;97201.16;;;1.29;80.43
27210;BME280;14721;42.668;23.386;2022-12-19T06:13:34;97218.59;;;1.45;81.11
27210;BME280;14721;42.668;23.386;2022-12-19T06:16:02;97220.31;;;1.48;80.68
27210;BME280;14721;42.668;23.386;2022-12-19T06:18:30;97214.09;;;1.55;80.26
27210;BME280;14721;42.668;23.386;2022-12-19T06:21:03;97217.66;;;1.49;80.25
27210;BME280;14721;42.668;23.386;2022-12-19T06:23:30;97207.31;;;1.28;79.63
27210;BME280;14721;42.668;23.386;2022-12-19T06:25:59;97234.34;;;1.50;79.78
27210;BME280;14721;42.668;23.386;2022-12-19T06:28:26;97238.66;;;1.57;79.82
27210;BME280;14721;42.668;23.386;2022-12-19T06:31:00;97235.13;;;1.59;79.52
27210;BME280;14721;42.668;23.386;2022-12-19T06:33:27;97229.84;;;1.61;79.03
27210;BME280;14721;42.668;23.386;2022-12-19T06:38:28;97228.06;;;1.63;79.51
27210;BME280;14721;42.668;23.386;2022-12-19T06:40:55;97242.06;;;1.69;79.12
27210;BME280;14721;42.668;23.386;2022-12-19T06:43:41;97238.50;;;1.75;78.78
27210;BME280;14721;42.668;23.386;2022-12-19T06:46:08;97241.78;;;1.98;78.52
27210;BME280;14721;42.668;23.386;2022-12-19T06:48:33;97242.44;;;2.17;77.47
27210;BME280;14721;42.668;23.386;2022-12-19T06:50:59;97242.31;;;2.26;77.35
27210;BME280;14721;42.668;23.386;2022-12-19T06:53:25;97248.38;;;2.35;76.68
27210;BME280;14721;42.668;23.386;2022-12-19T06:55:52;97254.53;;;2.36;76.10
27210;BME280;14721;42.668;23.386;2022-12-19T06:58:19;97258.13;;;2.27;75.89
27210;BME280;14721;42.668;23.386;2022-12-19T07:00:45;97263.53;;;2.15;76.25
27210;BME280;14721;42.668;23.386;2022-12-19T07:03:14;97270.69;;;2.07;76.89
27210;BME280;14721;42.668;23.386;2022-12-19T07:05:40;97272.38;;;2.13;76.85
27210;BME280;14721;42.668;23.386;2022-12-19T07:08:09;97269.84;;;2.04;77.16
27210;BME280;14721;42.668;23.386;2022-12-19T07:10:35;97264.59;;;1.99;77.73
27210;BME280;14721;42.668;23.386;2022-12-19T07:13:01;97274.22;;;2.05;77.44
27210;BME280;14721;42.668;23.386;2022-12-19T07:15:27;97274.31;;;1.94;77.44
27210;BME280;14721;42.668;23.386;2022-12-19T07:17:54;97279.56;;;1.95;77.65
27210;BME280;14721;42.668;23.386;2022-12-19T07:20:20;97279.56;;;1.95;77.78
27210;BME280;14721;42.668;23.386;2022-12-19T07:22:47;97282.19;;;1.98;77.61
27210;BME280;14721;42.668;23.386;2022-12-19T07:25:13;97287.50;;;1.94;77.71
27210;BME280;14721;42.668;23.386;2022-12-19T07:27:41;97287.50;;;1.94;78.25
27210;BME280;14721;42.668;23.386;2022-12-19T07:30:07;97283.09;;;1.94;78.14
27210;BME280;14721;42.668;23.386;2022-12-19T07:32:33;97281.34;;;1.97;77.93
27210;BME280;14721;42.668;23.386;2022-12-19T07:34:59;97282.09;;;2.08;77.67
27210;BME280;14721;42.668;23.386;2022-12-19T07:37:27;97281.03;;;2.25;77.89
27210;BME280;14721;42.668;23.386;2022-12-19T07:39:53;97279.91;;;2.46;77.27
27210;BME280;14721;42.668;23.386;2022-12-19T07:42:19;97285.88;;;2.58;76.53
27210;BME280;14721;42.668;23.386;2022-12-19T07:44:45;97299.28;;;2.45;76.66
27210;BME280;14721;42.668;23.386;2022-12-19T07:47:13;97298.53;;;2.32;76.81
27210;BME280;14721;42.668;23.386;2022-12-19T07:49:39;97303.88;;;2.26;76.78
27210;BME280;14721;42.668;23.386;2022-12-19T07:52:05;97313.69;;;2.12;77.33
27210;BME280;14721;42.668;23.386;2022-12-19T07:54:30;97308.34;;;2.17;77.61
27210;BME280;14721;42.668;23.386;2022-12-19T07:56:56;97318.09;;;2.13;77.98
27210;BME280;14721;42.668;23.386;2022-12-19T07:59:22;97325.06;;;2.17;77.91
27210;BME280;14721;42.668;23.386;2022-12-19T08:01:47;97330.38;;;2.14;77.40
27210;BME280;14721;42.668;23.386;2022-12-19T08:04:13;97331.25;;;2.16;78.06
27210;BME280;14721;42.668;23.386;2022-12-19T08:06:38;97331.84;;;2.39;77.29
27210;BME280;14721;42.668;23.386;2022-12-19T08:09:04;97331.75;;;2.48;76.54
27210;BME280;14721;42.668;23.386;2022-12-19T08:11:30;97332.66;;;2.47;75.58
27210;BME280;14721;42.668;23.386;2022-12-19T08:13:59;97338.84;;;2.46;75.68
27210;BME280;14721;42.668;23.386;2022-12-19T08:16:26;97335.47;;;2.32;75.60
27210;BME280;14721;42.668;23.386;2022-12-19T08:18:52;97327.66;;;2.22;76.20
27210;BME280;14721;42.668;23.386;2022-12-19T08:21:18;97316.31;;;2.14;76.73
27210;BME280;14721;42.668;23.386;2022-12-19T08:23:44;97331.13;;;2.27;77.22
27210;BME280;14721;42.668;23.386;2022-12-19T08:26:14;97332.03;;;2.21;78.03
27210;BME280;14721;42.668;23.386;2022-12-19T08:28:40;97338.97;;;2.33;77.84
27210;BME280;14721;42.668;23.386;2022-12-19T08:31:09;97345.19;;;2.26;77.77
27210;BME280;14721;42.668;23.386;2022-12-19T08:33:35;97340.53;;;2.50;77.53
27210;BME280;14721;42.668;23.386;2022-12-19T08:36:10;97331.53;;;2.68;76.66
27210;BME280;14721;42.668;23.386;2022-12-19T08:38:36;97342.03;;;2.72;76.24
27210;BME280;14721;42.668;23.386;2022-12-19T08:41:02;97344.69;;;2.69;76.00
27210;BME280;14721;42.668;23.386;2022-12-19T08:43:28;97340.34;;;2.65;76.04
27210;BME280;14721;42.668;23.386;2022-12-19T08:45:55;97332.63;;;2.50;76.76
27210;BME280;14721;42.668;23.386;2022-12-19T08:48:21;97314.22;;;2.43;76.85
27210;BME280;14721;42.668;23.386;2022-12-19T08:51:09;97326.69;;;2.29;78.29
27210;BME280;14721;42.668;23.386;2022-12-19T08:53:39;97325.09;;;2.14;78.90
27210;BME280;14721;42.668;23.386;2022-12-19T08:56:14;97326.84;;;2.14;79.80
27210;BME280;14721;42.668;23.386;2022-12-19T08:58:40;97312.75;;;2.19;79.95
27210;BME280;14721;42.668;23.386;2022-12-19T09:01:08;97322.00;;;2.55;79.44
27210;BME280;14721;42.668;23.386;2022-12-19T09:03:35;97307.84;;;2.62;78.78
27210;BME280;14721;42.668;23.386;2022-12-19T09:06:03;97312.47;;;2.43;79.24
27210;BME280;14721;42.668;23.386;2022-12-19T09:08:30;97294.91;;;2.41;79.55
27210;BME280;14721;42.668;23.386;2022-12-19T09:11:02;97306.19;;;2.55;79.59
27210;BME280;14721;42.668;23.386;2022-12-19T09:13:29;97303.53;;;2.56;79.51
27210;BME280;14721;42.668;23.386;2022-12-19T09:16:23;97296.31;;;2.69;79.31
27210;BME280;14721;42.668;23.386;2022-12-19T09:18:49;97290.31;;;2.56;79.93
27210;BME280;14721;42.668;23.386;2022-12-19T09:21:17;97288.50;;;2.60;79.50
27210;BME280;14721;42.668;23.386;2022-12-19T09:23:51;97299.91;;;2.62;80.10
27210;BME280;14721;42.668;23.386;2022-12-19T09:26:16;97289.03;;;2.87;79.84
27210;BME280;14721;42.668;23.386;2022-12-19T09:28:49;97228.41;;;2.81;78.98
27210;BME280;14721;42.668;23.386;2022-12-19T09:31:18;97262.53;;;2.93;78.65
27210;BME280;14721;42.668;23.386;2022-12-19T09:33:45;97243.28;;;2.85;79.00
27210;BME280;14721;42.668;23.386;2022-12-19T09:36:13;97265.00;;;3.05;78.91
27210;BME280;14721;42.668;23.386;2022-12-19T09:38:40;97258.81;;;3.08;78.12
27210;BME280;14721;42.668;23.386;2022-12-19T09:47:02;97261.84;;;2.79;77.80
27210;BME280;14721;42.668;23.386;2022-12-19T09:49:36;97254.66;;;2.90;78.81
27210;BME280;14721;42.668;23.386;2022-12-19T09:57:48;97248.47;;;2.91;78.89
27210;BME280;14721;42.668;23.386;2022-12-19T10:00:40;97241.41;;;2.93;79.19
27210;BME280;14721;42.668;23.386;2022-12-19T10:03:44;97246.63;;;2.99;79.01
27210;BME280;14721;42.668;23.386;2022-12-19T10:08:41;97229.00;;;3.01;80.60
27210;BME280;14721;42.668;23.386;2022-12-19T10:16:31;97212.09;;;3.64;79.45
27210;BME280;14721;42.668;23.386;2022-12-19T10:19:13;97204.31;;;4.03;78.04
27210;BME280;14721;42.668;23.386;2022-12-19T10:21:59;97209.72;;;3.97;77.40
27210;BME280;14721;42.668;23.386;2022-12-19T10:30:14;97195.66;;;3.96;77.95
27210;BME280;14721;42.668;23.386;2022-12-19T10:35:34;97169.91;;;4.04;77.97
27210;BME280;14721;42.668;23.386;2022-12-19T10:41:14;97180.81;;;4.32;78.39
27210;BME280;14721;42.668;23.386;2022-12-19T10:44:01;97178.00;;;4.79;76.77
27210;BME280;14721;42.668;23.386;2022-12-19T10:46:44;97173.22;;;4.56;75.54
27210;BME280;14721;42.668;23.386;2022-12-19T10:49:16;97168.13;;;4.47;76.66
27210;BME280;14721;42.668;23.386;2022-12-19T10:54:41;97172.50;;;4.48;76.73
27210;BME280;14721;42.668;23.386;2022-12-19T10:57:31;97171.13;;;4.31;77.57
27210;BME280;14721;42.668;23.386;2022-12-19T11:00:05;97156.38;;;4.18;78.43
27210;BME280;14721;42.668;23.386;2022-12-19T11:10:41;97160.75;;;4.61;77.69
27210;BME280;14721;42.668;23.386;2022-12-19T11:16:01;97158.59;;;4.39;78.32
27210;BME280;14721;42.668;23.386;2022-12-19T11:18:41;97156.13;;;4.30;78.64
27210;BME280;14721;42.668;23.386;2022-12-19T11:21:15;97160.88;;;4.16;79.69
27210;BME280;14721;42.668;23.386;2022-12-19T11:26:41;97137.63;;;4.30;79.61
27210;BME280;14721;42.668;23.386;2022-12-19T11:29:27;97129.75;;;4.27;78.83
27210;BME280;14721;42.668;23.386;2022-12-19T11:32:03;97137.50;;;4.34;78.51
27210;BME280;14721;42.668;23.386;2022-12-19T11:34:31;97151.03;;;4.62;78.28
27210;BME280;14721;42.668;23.386;2022-12-19T11:37:23;97127.28;;;4.59;78.31
27210;BME280;14721;42.668;23.386;2022-12-19T11:40:09;97132.06;;;4.42;77.63
27210;BME280;14721;42.668;23.386;2022-12-19T11:42:46;97147.09;;;4.41;77.94
27210;BME280;14721;42.668;23.386;2022-12-19T11:45:17;97143.81;;;4.29;78.88
27210;BME280;14721;42.668;23.386;2022-12-19T11:47:52;97163.38;;;4.22;79.57
27210;BME280;14721;42.668;23.386;2022-12-19T11:50:25;97147.56;;;4.19;80.17
27210;BME280;14721;42.668;23.386;2022-12-19T11:53:11;97147.50;;;4.22;81.01
27210;BME280;14721;42.668;23.386;2022-12-19T11:55:48;97163.50;;;4.16;80.89
27210;BME280;14721;42.668;23.386;2022-12-19T11:58:15;97158.09;;;4.22;81.19
27210;BME280;14721;42.668;23.386;2022-12-19T12:04:00;97150.88;;;4.28;80.79
27210;BME280;14721;42.668;23.386;2022-12-19T12:06:39;97145.56;;;4.30;80.90
27210;BME280;14721;42.668;23.386;2022-12-19T12:14:21;97155.84;;;4.02;81.70
27210;BME280;14721;42.668;23.386;2022-12-19T12:31:00;97156.00;;;4.36;79.96
27210;BME280;14721;42.668;23.386;2022-12-19T12:36:04;97151.63;;;4.35;79.92
27210;BME280;14721;42.668;23.386;2022-12-19T12:38:59;97159.31;;;4.47;79.47
27210;BME280;14721;42.668;23.386;2022-12-19T12:44:38;97142.06;;;4.29;79.30
27210;BME280;14721;42.668;23.386;2022-12-19T12:49:41;97163.28;;;4.66;78.08
27210;BME280;14721;42.668;23.386;2022-12-19T12:52:12;97172.19;;;4.63;74.90
27210;BME280;14721;42.668;23.386;2022-12-19T12:54:42;97158.31;;;4.51;73.44
27210;BME280;14721;42.668;23.386;2022-12-19T13:02:40;97134.81;;;3.96;74.23
27210;BME280;14721;42.668;23.386;2022-12-19T13:08:09;97162.97;;;3.99;74.88
27210;BME280;14721;42.668;23.386;2022-12-19T13:10:58;97161.13;;;4.04;75.11
27210;BME280;14721;42.668;23.386;2022-12-19T13:13:51;97171.41;;;4.17;74.75
27210;BME280;14721;42.668;23.386;2022-12-19T13:19:25;97155.97;;;3.96;74.69
27210;BME280;14721;42.668;23.386;2022-12-19T13:24:54;97168.34;;;3.94;75.47
27210;BME280;14721;42.668;23.386;2022-12-19T13:46:03;97202.94;;;3.83;74.65
27210;BME280;14721;42.668;23.386;2022-12-19T13:48:41;97196.00;;;3.76;75.23
27210;BME280;14721;42.668;23.386;2022-12-19T13:51:12;97194.06;;;3.84;75.11
27210;BME280;14721;42.668;23.386;2022-12-19T13:53:40;97186.91;;;3.91;74.16
27210;BME280;14721;42.668;23.386;2022-12-19T13:56:17;97195.69;;;3.95;74.07
27210;BME280;14721;42.668;23.386;2022-12-19T14:01:24;97188.50;;;4.00;73.39
27210;BME280;14721;42.668;23.386;2022-12-19T14:03:56;97185.78;;;4.03;73.17
27210;BME280;14721;42.668;23.386;2022-12-19T14:06:27;97184.22;;;3.94;73.29
27210;BME280;14721;42.668;23.386;2022-12-19T14:09:01;97187.94;;;3.84;74.07
27210;BME280;14721;42.668;23.386;2022-12-19T14:11:28;97187.03;;;3.85;73.14
27210;BME280;14721;42.668;23.386;2022-12-19T14:13:59;97197.72;;;3.79;72.12
27210;BME280;14721;42.668;23.386;2022-12-19T14:16:45;97197.69;;;3.80;72.51
27210;BME280;14721;42.668;23.386;2022-12-19T14:19:24;97202.81;;;3.89;72.68
27210;BME280;14721;42.668;23.386;2022-12-19T14:21:51;97190.38;;;3.95;72.94
27210;BME280;14721;42.668;23.386;2022-12-19T14:24:19;97205.28;;;3.99;73.30
27210;BME280;14721;42.668;23.386;2022-12-19T14:26:58;97219.47;;;3.95;73.40
27210;BME280;14721;42.668;23.386;2022-12-19T14:29:49;97215.16;;;3.89;74.18
27210;BME280;14721;42.668;23.386;2022-12-19T14:32:19;97201.16;;;3.84;73.45
27210;BME280;14721;42.668;23.386;2022-12-19T14:34:47;97198.53;;;3.82;72.82
27210;BME280;14721;42.668;23.386;2022-12-19T14:37:31;97201.31;;;3.76;72.76
27210;BME280;14721;42.668;23.386;2022-12-19T14:39:59;97199.72;;;3.65;72.77
27210;BME280;14721;42.668;23.386;2022-12-19T14:42:30;97197.84;;;3.73;72.56
27210;BME280;14721;42.668;23.386;2022-12-19T14:45:38;97204.88;;;3.72;73.03
27210;BME280;14721;42.668;23.386;2022-12-19T14:48:49;97194.69;;;3.99;72.30
27210;BME280;14721;42.668;23.386;2022-12-19T14:51:24;97188.53;;;3.98;72.09
27210;BME280;14721;42.668;23.386;2022-12-19T14:54:15;97186.19;;;3.83;73.18
27210;BME280;14721;42.668;23.386;2022-12-19T14:56:45;97188.78;;;3.84;73.62
27210;BME280;14721;42.668;23.386;2022-12-19T15:01:53;97188.31;;;3.64;73.31
27210;BME280;14721;42.668;23.386;2022-12-19T15:04:24;97176.97;;;3.58;72.97
27210;BME280;14721;42.668;23.386;2022-12-19T15:06:56;97182.56;;;3.40;73.83
27210;BME280;14721;42.668;23.386;2022-12-19T15:09:23;97188.78;;;3.37;74.58
27210;BME280;14721;42.668;23.386;2022-12-19T15:11:55;97176.34;;;3.42;75.25
27210;BME280;14721;42.668;23.386;2022-12-19T15:14:46;97170.44;;;3.28;76.15
27210;BME280;14721;42.668;23.386;2022-12-19T15:17:22;97166.06;;;3.26;76.74
27210;BME280;14721;42.668;23.386;2022-12-19T15:19:49;97167.84;;;3.25;77.51
27210;BME280;14721;42.668;23.386;2022-12-19T15:22:15;97182.06;;;3.17;77.94
27210;BME280;14721;42.668;23.386;2022-12-19T15:24:41;97185.66;;;3.13;78.20
27210;BME280;14721;42.668;23.386;2022-12-19T15:27:12;97194.63;;;3.03;79.75
27210;BME280;14721;42.668;23.386;2022-12-19T15:29:40;97190.09;;;3.11;80.39
27210;BME280;14721;42.668;23.386;2022-12-19T15:32:12;97196.25;;;3.11;80.48
27210;BME280;14721;42.668;23.386;2022-12-19T15:34:38;97182.22;;;3.06;80.22
27210;BME280;14721;42.668;23.386;2022-12-19T15:37:12;97181.97;;;3.23;79.98
27210;BME280;14721;42.668;23.386;2022-12-19T15:39:40;97186.28;;;3.30;79.57
27210;BME280;14721;42.668;23.386;2022-12-19T15:42:16;97199.38;;;3.36;78.40
27210;BME280;14721;42.668;23.386;2022-12-19T15:44:44;97210.13;;;3.25;78.06
27210;BME280;14721;42.668;23.386;2022-12-19T15:47:29;97219.03;;;3.18;78.63
27210;BME280;14721;42.668;23.386;2022-12-19T15:49:55;97220.78;;;3.19;79.03
27210;BME280;14721;42.668;23.386;2022-12-19T15:52:22;97215.69;;;3.07;79.47